SAS2864 EKCH-ENBR
Flight info
| Callsign | SAS2864 |
|---|---|
| Flight time | 1h 8m |
| Altitude | 38000 |
| Route | GOLGA DCT RETKA DCT PESUR |
| Aircraft | A20N/M-SDE2E3FGHIRWXY/LB1 |
Departure
| Time | 2026-04-26 11:18 |
|---|---|
| Airport | Copenhagen Kastrup Airport (EKCH) |
Arrival
| Time | 2026-04-26 12:27 |
|---|---|
| Airport | Bergen Airport, Flesland (ENBR) |
| Time | Latitude | Longitude | Altitude | Speed | Heading |
|---|---|---|---|---|---|
| 2026-04-26 10:57 | 55.62671 | 12.64432 | 26 ft | 0 kts | 97° |
| 2026-04-26 11:04 | 55.62671 | 12.64431 | 26 ft | 0 kts | 97° |
| 2026-04-26 11:04 | 55.62672 | 12.64415 | 26 ft | 2 kts | 97° |
| 2026-04-26 11:04 | 55.62674 | 12.64389 | 26 ft | 2 kts | 98° |
| 2026-04-26 11:04 | 55.62676 | 12.64363 | 26 ft | 2 kts | 97° |
| 2026-04-26 11:05 | 55.62677 | 12.64336 | 26 ft | 2 kts | 70° |
| 2026-04-26 11:05 | 55.62668 | 12.64314 | 26 ft | 2 kts | 34° |
| 2026-04-26 11:05 | 55.62654 | 12.64304 | 26 ft | 2 kts | 22° |
| 2026-04-26 11:05 | 55.62641 | 12.64293 | 26 ft | 2 kts | 25° |
| 2026-04-26 11:06 | 55.62627 | 12.64281 | 26 ft | 2 kts | 29° |
| 2026-04-26 11:06 | 55.62614 | 12.64268 | 26 ft | 2 kts | 31° |
| 2026-04-26 11:06 | 55.62602 | 12.64254 | 26 ft | 2 kts | 33° |
| 2026-04-26 11:06 | 55.62589 | 12.64240 | 26 ft | 2 kts | 34° |
| 2026-04-26 11:07 | 55.62577 | 12.64225 | 26 ft | 2 kts | 34° |
| 2026-04-26 11:07 | 55.62564 | 12.64210 | 26 ft | 2 kts | 34° |
| 2026-04-26 11:07 | 55.62552 | 12.64194 | 26 ft | 2 kts | 54° |
| 2026-04-26 11:07 | 55.62546 | 12.64170 | 26 ft | 2 kts | 81° |
| 2026-04-26 11:08 | 55.62546 | 12.64143 | 26 ft | 2 kts | 107° |
| 2026-04-26 11:08 | 55.62553 | 12.64120 | 26 ft | 2 kts | 129° |
| 2026-04-26 11:08 | 55.62562 | 12.64098 | 26 ft | 2 kts | 122° |
| 2026-04-26 11:08 | 55.62570 | 12.64076 | 26 ft | 2 kts | 124° |
| 2026-04-26 11:09 | 55.62578 | 12.64054 | 26 ft | 1 kts | 123° |
| 2026-04-26 11:09 | 55.62580 | 12.64049 | 26 ft | 0 kts | 123° |
| 2026-04-26 11:10 | 55.62579 | 12.64051 | 26 ft | 1 kts | 123° |
| 2026-04-26 11:10 | 55.62563 | 12.64096 | 26 ft | 8 kts | 123° |
| 2026-04-26 11:11 | 55.62527 | 12.64193 | 26 ft | 10 kts | 124° |
| 2026-04-26 11:11 | 55.62476 | 12.64324 | 26 ft | 14 kts | 128° |
| 2026-04-26 11:11 | 55.62412 | 12.64470 | 26 ft | 15 kts | 126° |
| 2026-04-26 11:11 | 55.62352 | 12.64630 | 26 ft | 15 kts | 123° |
| 2026-04-26 11:12 | 55.62291 | 12.64796 | 26 ft | 16 kts | 124° |
| 2026-04-26 11:12 | 55.62226 | 12.64971 | 26 ft | 16 kts | 123° |
| 2026-04-26 11:12 | 55.62171 | 12.65098 | 29 ft | 10 kts | 155° |
| 2026-04-26 11:12 | 55.62125 | 12.65084 | 29 ft | 5 kts | 217° |
| 2026-04-26 11:13 | 55.62111 | 12.65066 | 28 ft | 0 kts | 215° |
| 2026-04-26 11:13 | 55.62105 | 12.65058 | 27 ft | 4 kts | 215° |
| 2026-04-26 11:13 | 55.62064 | 12.65008 | 25 ft | 10 kts | 213° |
| 2026-04-26 11:13 | 55.61997 | 12.64932 | 25 ft | 12 kts | 213° |
| 2026-04-26 11:14 | 55.61917 | 12.64841 | 25 ft | 14 kts | 213° |
| 2026-04-26 11:14 | 55.61831 | 12.64741 | 27 ft | 14 kts | 213° |
| 2026-04-26 11:14 | 55.61747 | 12.64644 | 28 ft | 15 kts | 214° |
| 2026-04-26 11:14 | 55.61652 | 12.64533 | 26 ft | 17 kts | 212° |
| 2026-04-26 11:15 | 55.61546 | 12.64414 | 26 ft | 18 kts | 213° |
| 2026-04-26 11:15 | 55.61438 | 12.64291 | 28 ft | 18 kts | 213° |
| 2026-04-26 11:15 | 55.61325 | 12.64161 | 27 ft | 19 kts | 213° |
| 2026-04-26 11:15 | 55.61208 | 12.64027 | 26 ft | 20 kts | 213° |
| 2026-04-26 11:16 | 55.61088 | 12.63889 | 25 ft | 21 kts | 213° |
| 2026-04-26 11:16 | 55.60962 | 12.63745 | 23 ft | 21 kts | 213° |
| 2026-04-26 11:16 | 55.60848 | 12.63614 | 23 ft | 15 kts | 212° |
| 2026-04-26 11:16 | 55.60766 | 12.63643 | 22 ft | 13 kts | 129° |
| 2026-04-26 11:17 | 55.60704 | 12.63777 | 22 ft | 14 kts | 120° |
| 2026-04-26 11:17 | 55.60723 | 12.63940 | 21 ft | 14 kts | 42° |
| 2026-04-26 11:17 | 55.60902 | 12.64216 | 24 ft | 68 kts | 41° |
| 2026-04-26 11:17 | 55.61431 | 12.65033 | 27 ft | 133 kts | 41° |
| 2026-04-26 11:18 | 55.62225 | 12.66266 | 358 ft | 158 kts | 39° |
| 2026-04-26 11:18 | 55.63030 | 12.67535 | 1060 ft | 159 kts | 37° |
| 2026-04-26 11:18 | 55.63852 | 12.68829 | 1785 ft | 162 kts | 37° |
| 2026-04-26 11:18 | 55.64738 | 12.70172 | 2322 ft | 177 kts | 34° |
| 2026-04-26 11:19 | 55.65829 | 12.71268 | 2849 ft | 189 kts | 12° |
| 2026-04-26 11:19 | 55.67164 | 12.71315 | 3339 ft | 205 kts | 341° |
| 2026-04-26 11:19 | 55.68418 | 12.69880 | 3821 ft | 227 kts | 317° |
| 2026-04-26 11:19 | 55.69623 | 12.67926 | 4478 ft | 244 kts | 320° |
| 2026-04-26 11:20 | 55.70924 | 12.65963 | 5407 ft | 249 kts | 321° |
| 2026-04-26 11:20 | 55.71800 | 12.64651 | 6068 ft | 251 kts | 321° |
| 2026-04-26 11:20 | 55.73559 | 12.62011 | 7388 ft | 253 kts | 321° |
| 2026-04-26 11:20 | 55.74896 | 12.60000 | 8365 ft | 255 kts | 321° |
| 2026-04-26 11:21 | 55.76216 | 12.58006 | 9330 ft | 255 kts | 321° |
| 2026-04-26 11:21 | 55.77553 | 12.55983 | 10278 ft | 256 kts | 321° |
| 2026-04-26 11:21 | 55.78920 | 12.53907 | 11063 ft | 263 kts | 321° |
| 2026-04-26 11:21 | 55.80338 | 12.51754 | 11510 ft | 280 kts | 321° |
| 2026-04-26 11:22 | 55.81863 | 12.49435 | 12042 ft | 293 kts | 321° |
| 2026-04-26 11:22 | 55.83398 | 12.47091 | 12831 ft | 297 kts | 321° |
| 2026-04-26 11:22 | 55.84949 | 12.44719 | 13662 ft | 298 kts | 321° |
| 2026-04-26 11:22 | 55.86509 | 12.42336 | 14483 ft | 299 kts | 321° |
| 2026-04-26 11:23 | 55.88077 | 12.39938 | 15284 ft | 301 kts | 321° |
| 2026-04-26 11:23 | 55.89666 | 12.37508 | 16050 ft | 303 kts | 321° |
| 2026-04-26 11:23 | 55.91253 | 12.35075 | 16812 ft | 304 kts | 321° |
| 2026-04-26 11:23 | 55.92840 | 12.32636 | 17534 ft | 306 kts | 320° |
| 2026-04-26 11:24 | 55.94462 | 12.30142 | 18246 ft | 309 kts | 320° |
| 2026-04-26 11:24 | 55.96073 | 12.27661 | 18934 ft | 311 kts | 320° |
| 2026-04-26 11:24 | 55.97729 | 12.25110 | 19593 ft | 314 kts | 320° |
| 2026-04-26 11:24 | 55.99365 | 12.22587 | 20213 ft | 317 kts | 320° |
| 2026-04-26 11:25 | 56.01047 | 12.19991 | 20840 ft | 321 kts | 319° |
| 2026-04-26 11:25 | 56.02721 | 12.17400 | 21447 ft | 323 kts | 319° |
| 2026-04-26 11:25 | 56.04423 | 12.14766 | 22040 ft | 326 kts | 319° |
| 2026-04-26 11:25 | 56.06150 | 12.12088 | 22604 ft | 330 kts | 319° |
| 2026-04-26 11:26 | 56.07866 | 12.09425 | 23161 ft | 333 kts | 319° |
| 2026-04-26 11:26 | 56.09617 | 12.06704 | 23728 ft | 335 kts | 319° |
| 2026-04-26 11:26 | 56.11388 | 12.03950 | 24280 ft | 338 kts | 318° |
| 2026-04-26 11:26 | 56.13146 | 12.01208 | 24782 ft | 342 kts | 319° |
| 2026-04-26 11:27 | 56.14958 | 11.98377 | 25294 ft | 345 kts | 318° |
| 2026-04-26 11:27 | 56.16756 | 11.95570 | 25823 ft | 347 kts | 319° |
| 2026-04-26 11:27 | 56.18579 | 11.92718 | 26328 ft | 350 kts | 319° |
| 2026-04-26 11:27 | 56.20406 | 11.89856 | 26776 ft | 354 kts | 318° |
| 2026-04-26 11:28 | 56.22271 | 11.86931 | 27226 ft | 357 kts | 318° |
| 2026-04-26 11:28 | 56.24139 | 11.83998 | 27674 ft | 360 kts | 318° |
| 2026-04-26 11:28 | 56.26006 | 11.81063 | 28103 ft | 362 kts | 318° |
| 2026-04-26 11:28 | 56.27897 | 11.78084 | 28533 ft | 365 kts | 318° |
| 2026-04-26 11:29 | 56.29807 | 11.75067 | 28938 ft | 367 kts | 318° |
| 2026-04-26 11:29 | 56.31743 | 11.72020 | 29325 ft | 370 kts | 319° |
| 2026-04-26 11:29 | 56.33726 | 11.69108 | 29690 ft | 374 kts | 321° |
| 2026-04-26 11:29 | 56.35838 | 11.66287 | 30083 ft | 376 kts | 322° |
| 2026-04-26 11:30 | 56.37952 | 11.63553 | 30556 ft | 376 kts | 322° |
| 2026-04-26 11:30 | 56.39362 | 11.61733 | 30888 ft | 375 kts | 322° |
| 2026-04-26 11:30 | 56.42149 | 11.58135 | 31516 ft | 374 kts | 322° |
| 2026-04-26 11:30 | 56.44270 | 11.55394 | 31978 ft | 373 kts | 322° |
| 2026-04-26 11:31 | 56.46349 | 11.52700 | 32419 ft | 372 kts | 322° |
| 2026-04-26 11:31 | 56.48437 | 11.49991 | 32827 ft | 371 kts | 322° |
| 2026-04-26 11:31 | 56.50540 | 11.47259 | 33243 ft | 370 kts | 322° |
| 2026-04-26 11:31 | 56.52620 | 11.44553 | 33630 ft | 370 kts | 322° |
| 2026-04-26 11:32 | 56.54703 | 11.41838 | 33994 ft | 369 kts | 322° |
| 2026-04-26 11:32 | 56.56778 | 11.39130 | 34355 ft | 369 kts | 322° |
| 2026-04-26 11:32 | 56.58826 | 11.36455 | 34691 ft | 368 kts | 322° |
| 2026-04-26 11:32 | 56.60914 | 11.33723 | 35003 ft | 368 kts | 321° |
| 2026-04-26 11:33 | 56.62974 | 11.31020 | 35263 ft | 368 kts | 321° |
| 2026-04-26 11:33 | 56.65051 | 11.28295 | 35528 ft | 368 kts | 321° |
| 2026-04-26 11:33 | 56.67107 | 11.25591 | 35785 ft | 368 kts | 321° |
| 2026-04-26 11:33 | 56.69177 | 11.22868 | 36036 ft | 368 kts | 321° |
| 2026-04-26 11:34 | 56.71224 | 11.20168 | 36272 ft | 368 kts | 321° |
| 2026-04-26 11:34 | 56.73305 | 11.17424 | 36507 ft | 368 kts | 321° |
| 2026-04-26 11:34 | 56.75378 | 11.14685 | 36694 ft | 370 kts | 321° |
| 2026-04-26 11:34 | 56.77441 | 11.11956 | 36906 ft | 371 kts | 321° |
| 2026-04-26 11:35 | 56.79517 | 11.09205 | 37119 ft | 372 kts | 321° |
| 2026-04-26 11:35 | 56.81607 | 11.06435 | 37328 ft | 374 kts | 321° |
| 2026-04-26 11:35 | 56.83698 | 11.03655 | 37511 ft | 375 kts | 321° |
| 2026-04-26 11:35 | 56.85802 | 11.00854 | 37684 ft | 376 kts | 321° |
| 2026-04-26 11:36 | 56.87915 | 10.98042 | 37847 ft | 377 kts | 321° |
| 2026-04-26 11:36 | 56.90037 | 10.95211 | 37975 ft | 378 kts | 321° |
| 2026-04-26 11:36 | 56.92144 | 10.92396 | 38105 ft | 380 kts | 321° |
| 2026-04-26 11:36 | 56.94275 | 10.89548 | 38247 ft | 381 kts | 321° |
| 2026-04-26 11:37 | 56.98576 | 10.83780 | 38264 ft | 383 kts | 321° |
| 2026-04-26 11:37 | 57.02843 | 10.78041 | 38272 ft | 383 kts | 321° |
| 2026-04-26 11:38 | 57.07122 | 10.72273 | 38273 ft | 383 kts | 321° |
| 2026-04-26 11:38 | 57.11420 | 10.66459 | 38268 ft | 383 kts | 321° |
| 2026-04-26 11:39 | 57.15672 | 10.60692 | 38274 ft | 383 kts | 321° |
| 2026-04-26 11:39 | 57.19964 | 10.54849 | 38267 ft | 383 kts | 321° |
| 2026-04-26 11:40 | 57.24236 | 10.49017 | 38261 ft | 383 kts | 321° |
| 2026-04-26 11:40 | 57.28504 | 10.43177 | 38262 ft | 384 kts | 321° |
| 2026-04-26 11:42 | 57.45619 | 10.19577 | 38267 ft | 385 kts | 321° |
| 2026-04-26 11:43 | 57.49890 | 10.13645 | 38256 ft | 385 kts | 321° |
| 2026-04-26 11:43 | 57.54168 | 10.07683 | 38240 ft | 386 kts | 321° |
| 2026-04-26 11:44 | 57.58436 | 10.01719 | 38253 ft | 386 kts | 320° |
| 2026-04-26 11:44 | 57.62698 | 9.95744 | 38251 ft | 386 kts | 321° |
| 2026-04-26 11:45 | 57.66973 | 9.89731 | 38266 ft | 386 kts | 321° |
| 2026-04-26 11:45 | 57.71241 | 9.83713 | 38260 ft | 386 kts | 321° |
| 2026-04-26 11:46 | 57.75527 | 9.77651 | 38257 ft | 386 kts | 321° |
| 2026-04-26 11:46 | 57.79788 | 9.71604 | 38251 ft | 386 kts | 321° |
| 2026-04-26 11:47 | 57.84045 | 9.65546 | 38265 ft | 387 kts | 321° |
| 2026-04-26 11:47 | 57.88336 | 9.59422 | 38251 ft | 387 kts | 321° |
| 2026-04-26 11:48 | 57.92583 | 9.53338 | 38259 ft | 386 kts | 321° |
| 2026-04-26 11:48 | 57.96835 | 9.47231 | 38257 ft | 387 kts | 321° |
| 2026-04-26 11:49 | 58.01249 | 9.41448 | 38257 ft | 388 kts | 325° |
| 2026-04-26 11:49 | 58.05828 | 9.36049 | 38261 ft | 388 kts | 326° |
| 2026-04-26 11:50 | 58.10384 | 9.30684 | 38251 ft | 388 kts | 325° |
| 2026-04-26 11:50 | 58.14962 | 9.25281 | 38260 ft | 388 kts | 325° |
| 2026-04-26 11:51 | 58.19523 | 9.19879 | 38254 ft | 389 kts | 325° |
| 2026-04-26 11:51 | 58.24095 | 9.14444 | 38246 ft | 389 kts | 325° |
| 2026-04-26 11:52 | 58.28653 | 9.09011 | 38230 ft | 389 kts | 325° |
| 2026-04-26 11:52 | 58.33225 | 9.03542 | 38221 ft | 390 kts | 325° |
| 2026-04-26 11:53 | 58.37801 | 8.98053 | 38215 ft | 390 kts | 325° |
| 2026-04-26 11:54 | 58.44665 | 8.89785 | 38213 ft | 390 kts | 325° |
| 2026-04-26 11:54 | 58.49213 | 8.84288 | 38208 ft | 391 kts | 325° |
| 2026-04-26 11:55 | 58.53798 | 8.78727 | 38200 ft | 390 kts | 325° |
| 2026-04-26 11:55 | 58.58356 | 8.73180 | 38194 ft | 389 kts | 325° |
| 2026-04-26 11:56 | 58.62892 | 8.67645 | 38191 ft | 390 kts | 325° |
| 2026-04-26 11:56 | 58.67460 | 8.62054 | 38182 ft | 391 kts | 325° |
| 2026-04-26 11:57 | 58.72015 | 8.56457 | 38179 ft | 391 kts | 325° |
| 2026-04-26 11:57 | 58.76587 | 8.50822 | 38182 ft | 391 kts | 326° |
| 2026-04-26 11:58 | 58.81145 | 8.45189 | 38178 ft | 392 kts | 326° |
| 2026-04-26 11:58 | 58.85717 | 8.39520 | 38173 ft | 392 kts | 326° |
| 2026-04-26 11:59 | 58.90308 | 8.33813 | 38165 ft | 392 kts | 324° |
| 2026-04-26 11:59 | 58.94850 | 8.28144 | 38160 ft | 393 kts | 325° |
| 2026-04-26 12:00 | 58.99451 | 8.22386 | 38161 ft | 393 kts | 324° |
| 2026-04-26 12:00 | 59.04005 | 8.16668 | 38149 ft | 392 kts | 324° |
| 2026-04-26 12:01 | 59.08544 | 8.10948 | 38127 ft | 392 kts | 324° |
| 2026-04-26 12:01 | 59.13103 | 8.05184 | 38120 ft | 391 kts | 324° |
| 2026-04-26 12:02 | 59.17646 | 7.99426 | 38123 ft | 391 kts | 324° |
| 2026-04-26 12:02 | 59.22191 | 7.93642 | 38121 ft | 392 kts | 324° |
| 2026-04-26 12:03 | 59.26773 | 7.87796 | 37907 ft | 393 kts | 324° |
| 2026-04-26 12:03 | 59.29039 | 7.84899 | 37613 ft | 390 kts | 324° |
| 2026-04-26 12:03 | 59.31268 | 7.82045 | 37284 ft | 387 kts | 324° |
| 2026-04-26 12:03 | 59.33507 | 7.79173 | 36867 ft | 384 kts | 324° |
| 2026-04-26 12:04 | 59.35732 | 7.76311 | 36452 ft | 383 kts | 324° |
| 2026-04-26 12:04 | 59.37928 | 7.73483 | 35914 ft | 385 kts | 324° |
| 2026-04-26 12:04 | 59.40165 | 7.70598 | 35343 ft | 387 kts | 324° |
| 2026-04-26 12:04 | 59.42405 | 7.67631 | 34709 ft | 388 kts | 321° |
| 2026-04-26 12:05 | 59.44410 | 7.64172 | 33589 ft | 393 kts | 313° |
| 2026-04-26 12:05 | 59.46177 | 7.60071 | 32169 ft | 403 kts | 306° |
| 2026-04-26 12:05 | 59.47677 | 7.55458 | 30804 ft | 407 kts | 301° |
| 2026-04-26 12:05 | 59.49073 | 7.50713 | 29313 ft | 409 kts | 300° |
| 2026-04-26 12:06 | 59.50472 | 7.45897 | 27930 ft | 405 kts | 300° |
| 2026-04-26 12:06 | 59.51840 | 7.41169 | 26873 ft | 395 kts | 300° |
| 2026-04-26 12:06 | 59.53170 | 7.36568 | 25931 ft | 383 kts | 300° |
| 2026-04-26 12:06 | 59.54448 | 7.32139 | 25345 ft | 368 kts | 299° |
| 2026-04-26 12:07 | 59.55691 | 7.27826 | 25104 ft | 363 kts | 299° |
| 2026-04-26 12:07 | 59.56930 | 7.23523 | 25080 ft | 363 kts | 299° |
| 2026-04-26 12:07 | 59.58167 | 7.19214 | 24569 ft | 360 kts | 299° |
| 2026-04-26 12:07 | 59.59388 | 7.14964 | 23451 ft | 366 kts | 299° |
| 2026-04-26 12:08 | 59.60643 | 7.10583 | 22498 ft | 366 kts | 300° |
| 2026-04-26 12:08 | 59.61869 | 7.06296 | 22037 ft | 360 kts | 300° |
| 2026-04-26 12:08 | 59.63093 | 7.02007 | 21510 ft | 358 kts | 300° |
| 2026-04-26 12:08 | 59.64297 | 6.97779 | 21009 ft | 354 kts | 300° |
| 2026-04-26 12:09 | 59.65501 | 6.93546 | 20517 ft | 351 kts | 299° |
| 2026-04-26 12:09 | 59.66678 | 6.89407 | 20036 ft | 348 kts | 300° |
| 2026-04-26 12:09 | 59.67849 | 6.85283 | 19566 ft | 344 kts | 300° |
| 2026-04-26 12:09 | 59.69017 | 6.81157 | 19095 ft | 340 kts | 301° |
| 2026-04-26 12:10 | 59.70160 | 6.77114 | 18629 ft | 337 kts | 300° |
| 2026-04-26 12:10 | 59.71291 | 6.73111 | 18146 ft | 335 kts | 301° |
| 2026-04-26 12:10 | 59.72416 | 6.69116 | 17650 ft | 333 kts | 301° |
| 2026-04-26 12:10 | 59.73542 | 6.65112 | 17159 ft | 331 kts | 301° |
| 2026-04-26 12:11 | 59.74651 | 6.61165 | 16651 ft | 330 kts | 301° |
| 2026-04-26 12:11 | 59.75753 | 6.57232 | 16126 ft | 330 kts | 301° |
| 2026-04-26 12:11 | 59.76864 | 6.53259 | 15622 ft | 328 kts | 301° |
| 2026-04-26 12:11 | 59.77970 | 6.49290 | 15121 ft | 327 kts | 301° |
| 2026-04-26 12:12 | 59.79055 | 6.45393 | 14611 ft | 325 kts | 301° |
| 2026-04-26 12:12 | 59.80149 | 6.41460 | 14101 ft | 324 kts | 301° |
| 2026-04-26 12:12 | 59.81224 | 6.37587 | 13615 ft | 322 kts | 301° |
| 2026-04-26 12:12 | 59.81942 | 6.34995 | 13268 ft | 320 kts | 301° |
| 2026-04-26 12:13 | 59.83347 | 6.29908 | 12606 ft | 318 kts | 300° |
| 2026-04-26 12:13 | 59.84408 | 6.26062 | 12120 ft | 315 kts | 301° |
| 2026-04-26 12:13 | 59.85452 | 6.22273 | 11657 ft | 313 kts | 301° |
| 2026-04-26 12:13 | 59.86497 | 6.18477 | 11208 ft | 310 kts | 301° |
| 2026-04-26 12:14 | 59.87523 | 6.14744 | 10763 ft | 308 kts | 301° |
| 2026-04-26 12:14 | 59.88524 | 6.11094 | 10515 ft | 298 kts | 301° |
| 2026-04-26 12:14 | 59.89493 | 6.07551 | 10399 ft | 284 kts | 301° |
| 2026-04-26 12:14 | 59.90426 | 6.04132 | 10294 ft | 270 kts | 301° |
| 2026-04-26 12:15 | 59.91298 | 6.00937 | 10051 ft | 263 kts | 301° |
| 2026-04-26 12:15 | 59.92164 | 5.97762 | 9678 ft | 262 kts | 301° |
| 2026-04-26 12:15 | 59.93042 | 5.94542 | 9289 ft | 261 kts | 301° |
| 2026-04-26 12:15 | 59.93905 | 5.91365 | 8909 ft | 260 kts | 301° |
| 2026-04-26 12:16 | 59.94755 | 5.88236 | 8554 ft | 258 kts | 301° |
| 2026-04-26 12:16 | 59.95605 | 5.85104 | 8188 ft | 257 kts | 301° |
| 2026-04-26 12:16 | 59.96454 | 5.81966 | 7837 ft | 255 kts | 301° |
| 2026-04-26 12:16 | 59.97290 | 5.78873 | 7481 ft | 253 kts | 301° |
| 2026-04-26 12:17 | 59.98112 | 5.75827 | 7136 ft | 252 kts | 301° |
| 2026-04-26 12:17 | 59.98944 | 5.72742 | 6788 ft | 250 kts | 301° |
| 2026-04-26 12:17 | 59.99764 | 5.69697 | 6445 ft | 248 kts | 301° |
| 2026-04-26 12:17 | 60.00576 | 5.66680 | 6125 ft | 246 kts | 301° |
| 2026-04-26 12:18 | 60.01378 | 5.63697 | 5789 ft | 245 kts | 301° |
| 2026-04-26 12:18 | 60.02182 | 5.60703 | 5464 ft | 243 kts | 301° |
| 2026-04-26 12:18 | 60.02969 | 5.57765 | 5152 ft | 239 kts | 301° |
| 2026-04-26 12:18 | 60.03733 | 5.54904 | 4840 ft | 230 kts | 301° |
| 2026-04-26 12:19 | 60.04467 | 5.52149 | 4526 ft | 222 kts | 301° |
| 2026-04-26 12:19 | 60.05178 | 5.49481 | 4246 ft | 215 kts | 301° |
| 2026-04-26 12:19 | 60.05875 | 5.46861 | 3976 ft | 211 kts | 301° |
| 2026-04-26 12:19 | 60.06559 | 5.44290 | 3714 ft | 208 kts | 301° |
| 2026-04-26 12:20 | 60.07236 | 5.41748 | 3470 ft | 205 kts | 301° |
| 2026-04-26 12:20 | 60.07895 | 5.39259 | 3312 ft | 196 kts | 302° |
| 2026-04-26 12:20 | 60.08499 | 5.36968 | 3331 ft | 176 kts | 302° |
| 2026-04-26 12:20 | 60.09042 | 5.34903 | 3240 ft | 160 kts | 301° |
| 2026-04-26 12:21 | 60.09547 | 5.32993 | 3152 ft | 154 kts | 302° |
| 2026-04-26 12:21 | 60.10058 | 5.31073 | 3101 ft | 155 kts | 302° |
| 2026-04-26 12:21 | 60.10580 | 5.29213 | 3043 ft | 153 kts | 310° |
| 2026-04-26 12:21 | 60.11397 | 5.27944 | 2974 ft | 148 kts | 339° |
| 2026-04-26 12:22 | 60.12397 | 5.27470 | 2987 ft | 148 kts | 350° |
| 2026-04-26 12:22 | 60.13416 | 5.27134 | 2918 ft | 148 kts | 351° |
| 2026-04-26 12:22 | 60.14418 | 5.26814 | 2787 ft | 138 kts | 351° |
| 2026-04-26 12:22 | 60.15340 | 5.26511 | 2704 ft | 132 kts | 351° |
| 2026-04-26 12:23 | 60.16234 | 5.26206 | 2600 ft | 130 kts | 350° |
| 2026-04-26 12:23 | 60.17114 | 5.25904 | 2419 ft | 128 kts | 351° |
| 2026-04-26 12:23 | 60.17985 | 5.25610 | 2246 ft | 128 kts | 351° |
| 2026-04-26 12:23 | 60.18858 | 5.25322 | 2072 ft | 127 kts | 351° |
| 2026-04-26 12:24 | 60.19735 | 5.25031 | 1896 ft | 127 kts | 350° |
| 2026-04-26 12:24 | 60.20605 | 5.24739 | 1721 ft | 127 kts | 350° |
| 2026-04-26 12:24 | 60.21473 | 5.24448 | 1552 ft | 127 kts | 350° |
| 2026-04-26 12:25 | 60.23211 | 5.23870 | 1201 ft | 126 kts | 350° |
| 2026-04-26 12:25 | 60.24069 | 5.23576 | 1027 ft | 126 kts | 352° |
| 2026-04-26 12:25 | 60.24925 | 5.23282 | 839 ft | 125 kts | 349° |
| 2026-04-26 12:25 | 60.25780 | 5.22997 | 678 ft | 125 kts | 350° |
| 2026-04-26 12:26 | 60.26637 | 5.22711 | 517 ft | 124 kts | 348° |
| 2026-04-26 12:26 | 60.27487 | 5.22428 | 341 ft | 124 kts | 351° |
| 2026-04-26 12:26 | 60.28339 | 5.22142 | 187 ft | 124 kts | 353° |
| 2026-04-26 12:26 | 60.29106 | 5.21892 | 160 ft | 93 kts | 350° |
| 2026-04-26 12:27 | 60.29576 | 5.21734 | 145 ft | 43 kts | 351° |
| 2026-04-26 12:27 | 60.29699 | 5.21734 | 144 ft | 7 kts | 64° |
| 2026-04-26 12:27 | 60.29708 | 5.21821 | 146 ft | 5 kts | 78° |
| 2026-04-26 12:27 | 60.29714 | 5.21886 | 147 ft | 4 kts | 80° |
| 2026-04-26 12:28 | 60.29716 | 5.21967 | 149 ft | 7 kts | 104° |
| 2026-04-26 12:28 | 60.29659 | 5.22023 | 149 ft | 11 kts | 167° |
| 2026-04-26 12:28 | 60.29581 | 5.22053 | 152 ft | 11 kts | 171° |
| 2026-04-26 12:28 | 60.29507 | 5.22078 | 154 ft | 11 kts | 171° |
| 2026-04-26 12:29 | 60.29425 | 5.22108 | 156 ft | 12 kts | 169° |
| 2026-04-26 12:29 | 60.29332 | 5.22138 | 158 ft | 14 kts | 170° |
| 2026-04-26 12:29 | 60.29134 | 5.22204 | 164 ft | 14 kts | 170° |
| 2026-04-26 12:30 | 60.29074 | 5.22310 | 168 ft | 10 kts | 114° |
| 2026-04-26 12:30 | 60.29031 | 5.22412 | 171 ft | 9 kts | 107° |
| 2026-04-26 12:30 | 60.29036 | 5.22529 | 173 ft | 7 kts | 79° |
| 2026-04-26 12:31 | 60.28983 | 5.22645 | 175 ft | 3 kts | 156° |
| 2026-04-26 12:31 | 60.28982 | 5.22646 | 175 ft | 0 kts | 155° |